sensor_id;sensor_type;location;lat;lon;timestamp;P1;durP1;ratioP1;P2;durP2;ratioP2
21837;SDS011;11081;45.946;6.140;2023-12-04T00:01:53;10.47;;;5.63;;
21837;SDS011;11081;45.946;6.140;2023-12-04T00:04:22;12.43;;;6.30;;
21837;SDS011;11081;45.946;6.140;2023-12-04T00:06:50;8.13;;;5.27;;
21837;SDS011;11081;45.946;6.140;2023-12-04T00:09:18;7.80;;;4.80;;
21837;SDS011;11081;45.946;6.140;2023-12-04T00:11:47;7.13;;;4.30;;
21837;SDS011;11081;45.946;6.140;2023-12-04T00:14:15;6.93;;;4.43;;
21837;SDS011;11081;45.946;6.140;2023-12-04T00:16:43;5.73;;;3.87;;
21837;SDS011;11081;45.946;6.140;2023-12-04T00:19:11;4.93;;;3.63;;
21837;SDS011;11081;45.946;6.140;2023-12-04T00:21:40;7.20;;;4.43;;
21837;SDS011;11081;45.946;6.140;2023-12-04T00:24:08;8.07;;;5.60;;
21837;SDS011;11081;45.946;6.140;2023-12-04T00:26:36;10.50;;;6.47;;
21837;SDS011;11081;45.946;6.140;2023-12-04T00:29:04;12.60;;;7.13;;
21837;SDS011;11081;45.946;6.140;2023-12-04T00:31:32;13.23;;;7.50;;
21837;SDS011;11081;45.946;6.140;2023-12-04T00:33:59;12.77;;;6.60;;
21837;SDS011;11081;45.946;6.140;2023-12-04T00:36:27;10.60;;;6.27;;
21837;SDS011;11081;45.946;6.140;2023-12-04T00:38:57;11.90;;;7.63;;
21837;SDS011;11081;45.946;6.140;2023-12-04T00:41:25;12.73;;;7.53;;
21837;SDS011;11081;45.946;6.140;2023-12-04T00:43:52;15.17;;;7.73;;
21837;SDS011;11081;45.946;6.140;2023-12-04T00:46:21;10.93;;;6.70;;
21837;SDS011;11081;45.946;6.140;2023-12-04T00:48:48;10.60;;;6.13;;
21837;SDS011;11081;45.946;6.140;2023-12-04T00:51:16;8.87;;;5.27;;
21837;SDS011;11081;45.946;6.140;2023-12-04T00:53:44;7.03;;;5.00;;
21837;SDS011;11081;45.946;6.140;2023-12-04T00:56:14;8.60;;;5.93;;
21837;SDS011;11081;45.946;6.140;2023-12-04T00:58:41;8.83;;;5.30;;
21837;SDS011;11081;45.946;6.140;2023-12-04T01:01:09;5.83;;;4.27;;
21837;SDS011;11081;45.946;6.140;2023-12-04T01:03:37;8.37;;;4.77;;
21837;SDS011;11081;45.946;6.140;2023-12-04T01:06:05;8.47;;;5.27;;
21837;SDS011;11081;45.946;6.140;2023-12-04T01:08:34;6.67;;;4.60;;
21837;SDS011;11081;45.946;6.140;2023-12-04T01:11:02;8.30;;;4.67;;
21837;SDS011;11081;45.946;6.140;2023-12-04T01:13:31;9.13;;;5.33;;
21837;SDS011;11081;45.946;6.140;2023-12-04T01:15:59;8.10;;;4.20;;
21837;SDS011;11081;45.946;6.140;2023-12-04T01:18:27;8.00;;;4.50;;
21837;SDS011;11081;45.946;6.140;2023-12-04T01:20:55;7.47;;;4.40;;
21837;SDS011;11081;45.946;6.140;2023-12-04T01:23:23;6.13;;;3.70;;
21837;SDS011;11081;45.946;6.140;2023-12-04T01:25:51;5.13;;;4.00;;
21837;SDS011;11081;45.946;6.140;2023-12-04T01:28:19;7.27;;;4.50;;
21837;SDS011;11081;45.946;6.140;2023-12-04T01:30:48;4.33;;;3.57;;
21837;SDS011;11081;45.946;6.140;2023-12-04T01:33:16;6.83;;;4.00;;
21837;SDS011;11081;45.946;6.140;2023-12-04T01:35:44;6.10;;;4.03;;
21837;SDS011;11081;45.946;6.140;2023-12-04T01:38:12;7.67;;;4.20;;
21837;SDS011;11081;45.946;6.140;2023-12-04T01:40:40;5.93;;;4.00;;
21837;SDS011;11081;45.946;6.140;2023-12-04T01:43:08;6.90;;;4.27;;
21837;SDS011;11081;45.946;6.140;2023-12-04T01:45:36;6.80;;;4.00;;
21837;SDS011;11081;45.946;6.140;2023-12-04T01:48:05;6.70;;;4.07;;
21837;SDS011;11081;45.946;6.140;2023-12-04T01:50:35;6.53;;;4.10;;
21837;SDS011;11081;45.946;6.140;2023-12-04T01:53:04;5.53;;;3.93;;
21837;SDS011;11081;45.946;6.140;2023-12-04T01:55:33;5.43;;;3.57;;
21837;SDS011;11081;45.946;6.140;2023-12-04T01:58:01;6.23;;;3.07;;
21837;SDS011;11081;45.946;6.140;2023-12-04T02:00:30;4.40;;;3.20;;
21837;SDS011;11081;45.946;6.140;2023-12-04T02:02:59;4.07;;;2.90;;
21837;SDS011;11081;45.946;6.140;2023-12-04T02:05:29;4.27;;;2.80;;
21837;SDS011;11081;45.946;6.140;2023-12-04T02:07:58;4.53;;;3.17;;
21837;SDS011;11081;45.946;6.140;2023-12-04T02:10:27;5.60;;;3.23;;
21837;SDS011;11081;45.946;6.140;2023-12-04T02:12:56;5.70;;;3.70;;
21837;SDS011;11081;45.946;6.140;2023-12-04T02:15:24;5.23;;;3.00;;
21837;SDS011;11081;45.946;6.140;2023-12-04T02:17:54;5.43;;;3.53;;
21837;SDS011;11081;45.946;6.140;2023-12-04T02:20:31;6.47;;;3.13;;
21837;SDS011;11081;45.946;6.140;2023-12-04T02:23:00;3.73;;;2.27;;
21837;SDS011;11081;45.946;6.140;2023-12-04T02:25:29;11.07;;;4.40;;
21837;SDS011;11081;45.946;6.140;2023-12-04T02:28:05;15.57;;;6.33;;
21837;SDS011;11081;45.946;6.140;2023-12-04T02:30:35;10.77;;;5.87;;
21837;SDS011;11081;45.946;6.140;2023-12-04T02:33:06;11.00;;;6.07;;
21837;SDS011;11081;45.946;6.140;2023-12-04T02:35:35;19.00;;;9.03;;
21837;SDS011;11081;45.946;6.140;2023-12-04T02:38:06;12.20;;;5.07;;
21837;SDS011;11081;45.946;6.140;2023-12-04T02:40:36;5.67;;;3.20;;
21837;SDS011;11081;45.946;6.140;2023-12-04T02:43:03;8.00;;;4.43;;
21837;SDS011;11081;45.946;6.140;2023-12-04T02:45:31;12.20;;;6.73;;
21837;SDS011;11081;45.946;6.140;2023-12-04T02:47:59;16.37;;;7.90;;
21837;SDS011;11081;45.946;6.140;2023-12-04T02:50:27;13.60;;;6.93;;
21837;SDS011;11081;45.946;6.140;2023-12-04T02:52:56;8.17;;;4.30;;
21837;SDS011;11081;45.946;6.140;2023-12-04T02:55:24;4.53;;;3.17;;
21837;SDS011;11081;45.946;6.140;2023-12-04T02:57:53;5.03;;;3.40;;
21837;SDS011;11081;45.946;6.140;2023-12-04T03:00:21;4.63;;;2.57;;
21837;SDS011;11081;45.946;6.140;2023-12-04T03:02:49;8.20;;;3.40;;
21837;SDS011;11081;45.946;6.140;2023-12-04T03:05:17;4.77;;;2.93;;
21837;SDS011;11081;45.946;6.140;2023-12-04T03:07:46;5.00;;;3.00;;
21837;SDS011;11081;45.946;6.140;2023-12-04T03:10:14;4.43;;;2.60;;
21837;SDS011;11081;45.946;6.140;2023-12-04T03:12:42;7.10;;;3.43;;
21837;SDS011;11081;45.946;6.140;2023-12-04T03:15:11;5.77;;;3.73;;
21837;SDS011;11081;45.946;6.140;2023-12-04T03:17:39;6.67;;;3.83;;
21837;SDS011;11081;45.946;6.140;2023-12-04T03:20:08;4.57;;;2.50;;
21837;SDS011;11081;45.946;6.140;2023-12-04T03:22:37;2.73;;;2.13;;
21837;SDS011;11081;45.946;6.140;2023-12-04T03:25:05;3.40;;;1.80;;
21837;SDS011;11081;45.946;6.140;2023-12-04T03:27:33;3.03;;;1.90;;
21837;SDS011;11081;45.946;6.140;2023-12-04T03:30:01;3.17;;;2.00;;
21837;SDS011;11081;45.946;6.140;2023-12-04T03:32:31;3.23;;;1.90;;
21837;SDS011;11081;45.946;6.140;2023-12-04T03:34:59;5.57;;;2.90;;
21837;SDS011;11081;45.946;6.140;2023-12-04T03:37:27;6.37;;;3.60;;
21837;SDS011;11081;45.946;6.140;2023-12-04T03:39:55;8.37;;;3.53;;
21837;SDS011;11081;45.946;6.140;2023-12-04T03:42:23;5.03;;;3.13;;
21837;SDS011;11081;45.946;6.140;2023-12-04T03:44:51;2.87;;;2.13;;
21837;SDS011;11081;45.946;6.140;2023-12-04T03:47:19;3.53;;;2.13;;
21837;SDS011;11081;45.946;6.140;2023-12-04T03:49:50;4.43;;;2.10;;
21837;SDS011;11081;45.946;6.140;2023-12-04T03:52:18;4.10;;;2.97;;
21837;SDS011;11081;45.946;6.140;2023-12-04T03:54:45;4.97;;;2.90;;
21837;SDS011;11081;45.946;6.140;2023-12-04T03:57:13;2.07;;;1.60;;
21837;SDS011;11081;45.946;6.140;2023-12-04T03:59:41;4.13;;;1.37;;
21837;SDS011;11081;45.946;6.140;2023-12-04T04:02:10;4.10;;;1.80;;
21837;SDS011;11081;45.946;6.140;2023-12-04T04:04:39;2.90;;;1.60;;
21837;SDS011;11081;45.946;6.140;2023-12-04T04:07:08;2.73;;;1.80;;
21837;SDS011;11081;45.946;6.140;2023-12-04T04:09:36;3.27;;;2.20;;
21837;SDS011;11081;45.946;6.140;2023-12-04T04:12:04;4.33;;;1.93;;
21837;SDS011;11081;45.946;6.140;2023-12-04T04:14:32;3.20;;;2.10;;
21837;SDS011;11081;45.946;6.140;2023-12-04T04:17:00;3.73;;;2.20;;
21837;SDS011;11081;45.946;6.140;2023-12-04T04:19:28;3.23;;;2.00;;
21837;SDS011;11081;45.946;6.140;2023-12-04T04:21:56;3.77;;;2.00;;
21837;SDS011;11081;45.946;6.140;2023-12-04T04:24:26;2.57;;;1.80;;
21837;SDS011;11081;45.946;6.140;2023-12-04T04:26:54;2.70;;;1.90;;
21837;SDS011;11081;45.946;6.140;2023-12-04T04:29:21;3.37;;;2.20;;
21837;SDS011;11081;45.946;6.140;2023-12-04T04:31:49;3.60;;;1.90;;
21837;SDS011;11081;45.946;6.140;2023-12-04T04:34:19;4.20;;;2.10;;
21837;SDS011;11081;45.946;6.140;2023-12-04T04:36:47;2.37;;;1.77;;
21837;SDS011;11081;45.946;6.140;2023-12-04T04:39:15;3.57;;;1.90;;
21837;SDS011;11081;45.946;6.140;2023-12-04T04:41:45;2.93;;;1.60;;
21837;SDS011;11081;45.946;6.140;2023-12-04T04:44:13;3.20;;;1.80;;
21837;SDS011;11081;45.946;6.140;2023-12-04T04:46:40;3.63;;;1.70;;
21837;SDS011;11081;45.946;6.140;2023-12-04T04:49:08;2.10;;;1.50;;
21837;SDS011;11081;45.946;6.140;2023-12-04T04:51:36;3.63;;;2.00;;
21837;SDS011;11081;45.946;6.140;2023-12-04T04:54:04;2.57;;;1.83;;
21837;SDS011;11081;45.946;6.140;2023-12-04T04:56:32;3.67;;;2.03;;
21837;SDS011;11081;45.946;6.140;2023-12-04T04:59:01;3.73;;;2.33;;
21837;SDS011;11081;45.946;6.140;2023-12-04T05:01:29;2.37;;;1.70;;
21837;SDS011;11081;45.946;6.140;2023-12-04T05:03:57;2.70;;;1.80;;
21837;SDS011;11081;45.946;6.140;2023-12-04T05:06:25;3.30;;;1.97;;
21837;SDS011;11081;45.946;6.140;2023-12-04T05:08:53;4.47;;;2.17;;
21837;SDS011;11081;45.946;6.140;2023-12-04T05:11:21;2.57;;;1.77;;
21837;SDS011;11081;45.946;6.140;2023-12-04T05:13:50;3.80;;;1.70;;
21837;SDS011;11081;45.946;6.140;2023-12-04T05:16:19;4.30;;;1.90;;
21837;SDS011;11081;45.946;6.140;2023-12-04T05:18:47;2.77;;;1.60;;
21837;SDS011;11081;45.946;6.140;2023-12-04T05:21:15;2.47;;;1.77;;
21837;SDS011;11081;45.946;6.140;2023-12-04T05:23:43;4.30;;;1.80;;
21837;SDS011;11081;45.946;6.140;2023-12-04T05:26:11;2.40;;;1.50;;
21837;SDS011;11081;45.946;6.140;2023-12-04T05:28:39;2.90;;;1.43;;
21837;SDS011;11081;45.946;6.140;2023-12-04T05:31:07;2.27;;;1.30;;
21837;SDS011;11081;45.946;6.140;2023-12-04T05:33:36;2.27;;;1.57;;
21837;SDS011;11081;45.946;6.140;2023-12-04T05:36:08;4.37;;;2.80;;
21837;SDS011;11081;45.946;6.140;2023-12-04T05:38:37;6.57;;;3.70;;
21837;SDS011;11081;45.946;6.140;2023-12-04T05:41:05;4.17;;;2.80;;
21837;SDS011;11081;45.946;6.140;2023-12-04T05:43:33;3.00;;;2.07;;
21837;SDS011;11081;45.946;6.140;2023-12-04T05:46:01;3.17;;;1.17;;
21837;SDS011;11081;45.946;6.140;2023-12-04T05:48:29;2.20;;;1.20;;
21837;SDS011;11081;45.946;6.140;2023-12-04T05:50:58;1.53;;;1.17;;
21837;SDS011;11081;45.946;6.140;2023-12-04T05:53:26;2.80;;;1.30;;
21837;SDS011;11081;45.946;6.140;2023-12-04T05:55:55;1.97;;;1.30;;
21837;SDS011;11081;45.946;6.140;2023-12-04T05:58:23;1.57;;;1.23;;
21837;SDS011;11081;45.946;6.140;2023-12-04T06:00:51;1.43;;;1.13;;
21837;SDS011;11081;45.946;6.140;2023-12-04T06:03:19;3.50;;;1.40;;
21837;SDS011;11081;45.946;6.140;2023-12-04T06:05:47;2.17;;;1.40;;
21837;SDS011;11081;45.946;6.140;2023-12-04T06:08:16;4.67;;;1.90;;
21837;SDS011;11081;45.946;6.140;2023-12-04T06:10:45;3.33;;;1.97;;
21837;SDS011;11081;45.946;6.140;2023-12-04T06:13:13;4.23;;;2.60;;
21837;SDS011;11081;45.946;6.140;2023-12-04T06:15:41;5.43;;;3.00;;
21837;SDS011;11081;45.946;6.140;2023-12-04T06:18:10;4.60;;;2.50;;
21837;SDS011;11081;45.946;6.140;2023-12-04T06:20:38;3.87;;;1.70;;
21837;SDS011;11081;45.946;6.140;2023-12-04T06:23:06;3.33;;;1.97;;
21837;SDS011;11081;45.946;6.140;2023-12-04T06:25:36;5.40;;;2.63;;
21837;SDS011;11081;45.946;6.140;2023-12-04T06:28:05;3.13;;;1.60;;
21837;SDS011;11081;45.946;6.140;2023-12-04T06:30:33;2.93;;;1.47;;
21837;SDS011;11081;45.946;6.140;2023-12-04T06:33:02;4.50;;;1.60;;
21837;SDS011;11081;45.946;6.140;2023-12-04T06:35:30;2.93;;;1.50;;
21837;SDS011;11081;45.946;6.140;2023-12-04T06:37:59;2.00;;;1.40;;
21837;SDS011;11081;45.946;6.140;2023-12-04T06:40:33;1.77;;;1.27;;
21837;SDS011;11081;45.946;6.140;2023-12-04T06:43:03;1.77;;;1.30;;
21837;SDS011;11081;45.946;6.140;2023-12-04T06:45:32;2.40;;;1.33;;
21837;SDS011;11081;45.946;6.140;2023-12-04T06:48:00;2.30;;;1.40;;
21837;SDS011;11081;45.946;6.140;2023-12-04T06:50:28;2.17;;;1.30;;
21837;SDS011;11081;45.946;6.140;2023-12-04T06:52:56;2.63;;;1.40;;
21837;SDS011;11081;45.946;6.140;2023-12-04T06:55:24;3.33;;;1.80;;
21837;SDS011;11081;45.946;6.140;2023-12-04T06:57:52;3.20;;;2.10;;
21837;SDS011;11081;45.946;6.140;2023-12-04T07:00:21;2.63;;;1.90;;
21837;SDS011;11081;45.946;6.140;2023-12-04T07:02:49;2.60;;;1.47;;
21837;SDS011;11081;45.946;6.140;2023-12-04T07:05:18;3.33;;;1.27;;
21837;SDS011;11081;45.946;6.140;2023-12-04T07:07:47;2.17;;;1.17;;
21837;SDS011;11081;45.946;6.140;2023-12-04T07:10:15;2.50;;;1.27;;
21837;SDS011;11081;45.946;6.140;2023-12-04T07:12:44;1.07;;;0.80;;
21837;SDS011;11081;45.946;6.140;2023-12-04T07:15:12;2.07;;;1.30;;
21837;SDS011;11081;45.946;6.140;2023-12-04T07:17:41;2.50;;;1.97;;
21837;SDS011;11081;45.946;6.140;2023-12-04T07:20:10;3.07;;;1.93;;
21837;SDS011;11081;45.946;6.140;2023-12-04T07:22:39;3.33;;;1.87;;
21837;SDS011;11081;45.946;6.140;2023-12-04T07:25:07;3.13;;;1.90;;
21837;SDS011;11081;45.946;6.140;2023-12-04T07:27:36;2.50;;;1.83;;
21837;SDS011;11081;45.946;6.140;2023-12-04T07:30:05;3.43;;;2.10;;
21837;SDS011;11081;45.946;6.140;2023-12-04T07:32:33;3.97;;;2.30;;
21837;SDS011;11081;45.946;6.140;2023-12-04T07:35:03;2.53;;;1.53;;
21837;SDS011;11081;45.946;6.140;2023-12-04T07:37:32;1.97;;;1.30;;
21837;SDS011;11081;45.946;6.140;2023-12-04T07:40:00;3.43;;;1.43;;
21837;SDS011;11081;45.946;6.140;2023-12-04T07:42:29;1.80;;;1.10;;
21837;SDS011;11081;45.946;6.140;2023-12-04T07:44:58;1.77;;;1.00;;
21837;SDS011;11081;45.946;6.140;2023-12-04T07:47:26;2.30;;;1.40;;
21837;SDS011;11081;45.946;6.140;2023-12-04T07:49:54;2.87;;;1.60;;
21837;SDS011;11081;45.946;6.140;2023-12-04T07:52:23;4.77;;;1.77;;
21837;SDS011;11081;45.946;6.140;2023-12-04T07:54:51;3.07;;;1.60;;
21837;SDS011;11081;45.946;6.140;2023-12-04T07:57:19;3.37;;;1.50;;
21837;SDS011;11081;45.946;6.140;2023-12-04T07:59:47;2.77;;;1.53;;
21837;SDS011;11081;45.946;6.140;2023-12-04T08:02:17;2.50;;;1.50;;
21837;SDS011;11081;45.946;6.140;2023-12-04T08:04:45;1.53;;;1.13;;
21837;SDS011;11081;45.946;6.140;2023-12-04T08:07:13;3.97;;;1.80;;
21837;SDS011;11081;45.946;6.140;2023-12-04T08:09:43;2.33;;;1.60;;
21837;SDS011;11081;45.946;6.140;2023-12-04T08:12:10;2.73;;;1.67;;
21837;SDS011;11081;45.946;6.140;2023-12-04T08:14:38;4.10;;;1.80;;
21837;SDS011;11081;45.946;6.140;2023-12-04T08:17:06;3.47;;;1.50;;
21837;SDS011;11081;45.946;6.140;2023-12-04T08:19:34;2.90;;;1.67;;
21837;SDS011;11081;45.946;6.140;2023-12-04T08:22:04;6.33;;;2.40;;
21837;SDS011;11081;45.946;6.140;2023-12-04T08:24:32;5.47;;;2.10;;
21837;SDS011;11081;45.946;6.140;2023-12-04T08:27:02;6.63;;;2.70;;
21837;SDS011;11081;45.946;6.140;2023-12-04T08:29:30;3.10;;;1.93;;
21837;SDS011;11081;45.946;6.140;2023-12-04T08:31:58;3.73;;;1.83;;
21837;SDS011;11081;45.946;6.140;2023-12-04T08:34:26;6.23;;;2.67;;
21837;SDS011;11081;45.946;6.140;2023-12-04T08:36:53;6.67;;;2.40;;
21837;SDS011;11081;45.946;6.140;2023-12-04T08:39:22;18.47;;;7.73;;
21837;SDS011;11081;45.946;6.140;2023-12-04T08:41:49;11.47;;;5.47;;
21837;SDS011;11081;45.946;6.140;2023-12-04T08:44:29;8.23;;;4.43;;
21837;SDS011;11081;45.946;6.140;2023-12-04T08:46:58;5.27;;;3.20;;
21837;SDS011;11081;45.946;6.140;2023-12-04T08:49:26;4.80;;;2.93;;
21837;SDS011;11081;45.946;6.140;2023-12-04T08:52:08;4.67;;;2.97;;
21837;SDS011;11081;45.946;6.140;2023-12-04T08:54:38;3.67;;;2.30;;
21837;SDS011;11081;45.946;6.140;2023-12-04T08:57:07;4.33;;;2.40;;
21837;SDS011;11081;45.946;6.140;2023-12-04T08:59:37;23.97;;;10.87;;
21837;SDS011;11081;45.946;6.140;2023-12-04T09:02:05;10.83;;;5.07;;
21837;SDS011;11081;45.946;6.140;2023-12-04T09:04:36;7.90;;;4.17;;
21837;SDS011;11081;45.946;6.140;2023-12-04T09:07:04;8.33;;;4.37;;
21837;SDS011;11081;45.946;6.140;2023-12-04T09:09:35;6.87;;;4.17;;
21837;SDS011;11081;45.946;6.140;2023-12-04T09:12:03;5.70;;;3.17;;
21837;SDS011;11081;45.946;6.140;2023-12-04T09:14:33;4.63;;;2.47;;
21837;SDS011;11081;45.946;6.140;2023-12-04T09:17:03;4.03;;;2.30;;
21837;SDS011;11081;45.946;6.140;2023-12-04T09:19:32;4.83;;;2.37;;
21837;SDS011;11081;45.946;6.140;2023-12-04T09:22:00;5.63;;;2.93;;
21837;SDS011;11081;45.946;6.140;2023-12-04T09:24:42;6.47;;;3.07;;
21837;SDS011;11081;45.946;6.140;2023-12-04T09:27:11;4.93;;;2.53;;
21837;SDS011;11081;45.946;6.140;2023-12-04T09:29:40;5.23;;;2.13;;
21837;SDS011;11081;45.946;6.140;2023-12-04T09:32:09;4.80;;;1.60;;
21837;SDS011;11081;45.946;6.140;2023-12-04T09:34:37;3.33;;;1.53;;
21837;SDS011;11081;45.946;6.140;2023-12-04T09:37:05;3.17;;;1.83;;
21837;SDS011;11081;45.946;6.140;2023-12-04T09:39:37;6.87;;;2.60;;
21837;SDS011;11081;45.946;6.140;2023-12-04T09:42:06;7.17;;;3.10;;
21837;SDS011;11081;45.946;6.140;2023-12-04T09:44:35;6.03;;;3.23;;
21837;SDS011;11081;45.946;6.140;2023-12-04T09:47:04;6.53;;;3.27;;
21837;SDS011;11081;45.946;6.140;2023-12-04T09:49:36;6.00;;;3.20;;
21837;SDS011;11081;45.946;6.140;2023-12-04T09:52:05;5.20;;;2.90;;
21837;SDS011;11081;45.946;6.140;2023-12-04T09:54:34;5.70;;;2.33;;
21837;SDS011;11081;45.946;6.140;2023-12-04T09:57:03;7.10;;;3.10;;
21837;SDS011;11081;45.946;6.140;2023-12-04T09:59:32;4.67;;;2.77;;
21837;SDS011;11081;45.946;6.140;2023-12-04T10:02:02;4.07;;;2.50;;
21837;SDS011;11081;45.946;6.140;2023-12-04T10:04:30;3.73;;;2.13;;
21837;SDS011;11081;45.946;6.140;2023-12-04T10:07:01;5.17;;;2.20;;
21837;SDS011;11081;45.946;6.140;2023-12-04T10:09:29;2.67;;;1.50;;
21837;SDS011;11081;45.946;6.140;2023-12-04T10:11:57;7.83;;;2.87;;
21837;SDS011;11081;45.946;6.140;2023-12-04T10:14:25;6.07;;;2.67;;
21837;SDS011;11081;45.946;6.140;2023-12-04T10:16:53;3.93;;;2.03;;
21837;SDS011;11081;45.946;6.140;2023-12-04T10:19:22;5.33;;;2.30;;
21837;SDS011;11081;45.946;6.140;2023-12-04T10:21:54;3.47;;;1.83;;
21837;SDS011;11081;45.946;6.140;2023-12-04T10:24:28;6.33;;;2.20;;
21837;SDS011;11081;45.946;6.140;2023-12-04T10:26:58;3.17;;;1.80;;
21837;SDS011;11081;45.946;6.140;2023-12-04T10:29:27;1.90;;;1.40;;
21837;SDS011;11081;45.946;6.140;2023-12-04T10:32:00;2.77;;;1.70;;
21837;SDS011;11081;45.946;6.140;2023-12-04T10:34:29;2.37;;;1.37;;
21837;SDS011;11081;45.946;6.140;2023-12-04T10:37:00;2.87;;;1.70;;
21837;SDS011;11081;45.946;6.140;2023-12-04T10:39:31;2.23;;;1.27;;
21837;SDS011;11081;45.946;6.140;2023-12-04T10:42:16;4.70;;;1.83;;
21837;SDS011;11081;45.946;6.140;2023-12-04T10:44:51;2.93;;;1.30;;
21837;SDS011;11081;45.946;6.140;2023-12-04T10:47:19;3.93;;;1.60;;
21837;SDS011;11081;45.946;6.140;2023-12-04T10:49:50;2.20;;;1.20;;
21837;SDS011;11081;45.946;6.140;2023-12-04T10:52:19;1.97;;;1.30;;
21837;SDS011;11081;45.946;6.140;2023-12-04T10:54:49;4.90;;;1.70;;
21837;SDS011;11081;45.946;6.140;2023-12-04T10:57:20;3.33;;;1.80;;
21837;SDS011;11081;45.946;6.140;2023-12-04T10:59:49;4.13;;;1.73;;
21837;SDS011;11081;45.946;6.140;2023-12-04T11:02:21;3.53;;;1.50;;
21837;SDS011;11081;45.946;6.140;2023-12-04T11:04:55;4.17;;;1.50;;
21837;SDS011;11081;45.946;6.140;2023-12-04T11:07:29;4.83;;;1.57;;
21837;SDS011;11081;45.946;6.140;2023-12-04T11:10:22;3.17;;;1.00;;
21837;SDS011;11081;45.946;6.140;2023-12-04T11:12:56;2.47;;;1.20;;
21837;SDS011;11081;45.946;6.140;2023-12-04T11:15:29;2.47;;;1.10;;
21837;SDS011;11081;45.946;6.140;2023-12-04T11:17:59;3.17;;;1.30;;
21837;SDS011;11081;45.946;6.140;2023-12-04T11:20:29;2.90;;;1.50;;
21837;SDS011;11081;45.946;6.140;2023-12-04T11:23:01;3.27;;;1.30;;
21837;SDS011;11081;45.946;6.140;2023-12-04T11:25:34;2.23;;;1.30;;
21837;SDS011;11081;45.946;6.140;2023-12-04T11:28:02;2.60;;;1.40;;
21837;SDS011;11081;45.946;6.140;2023-12-04T11:30:32;3.37;;;1.90;;
21837;SDS011;11081;45.946;6.140;2023-12-04T11:33:00;4.13;;;1.90;;
21837;SDS011;11081;45.946;6.140;2023-12-04T11:35:28;2.77;;;1.80;;
21837;SDS011;11081;45.946;6.140;2023-12-04T11:37:57;3.27;;;1.77;;
21837;SDS011;11081;45.946;6.140;2023-12-04T11:40:26;5.07;;;1.77;;
21837;SDS011;11081;45.946;6.140;2023-12-04T11:42:56;3.37;;;1.80;;
21837;SDS011;11081;45.946;6.140;2023-12-04T11:45:24;5.23;;;1.83;;
21837;SDS011;11081;45.946;6.140;2023-12-04T11:47:53;4.83;;;2.00;;
21837;SDS011;11081;45.946;6.140;2023-12-04T11:50:23;5.67;;;2.80;;
21837;SDS011;11081;45.946;6.140;2023-12-04T11:52:52;6.33;;;2.53;;
21837;SDS011;11081;45.946;6.140;2023-12-04T11:55:22;5.63;;;2.87;;
21837;SDS011;11081;45.946;6.140;2023-12-04T11:57:51;4.67;;;2.63;;
21837;SDS011;11081;45.946;6.140;2023-12-04T12:00:23;5.10;;;2.70;;
21837;SDS011;11081;45.946;6.140;2023-12-04T12:03:01;3.80;;;2.27;;
21837;SDS011;11081;45.946;6.140;2023-12-04T12:05:48;4.30;;;2.50;;
21837;SDS011;11081;45.946;6.140;2023-12-04T12:08:19;3.87;;;2.20;;
21837;SDS011;11081;45.946;6.140;2023-12-04T12:10:47;3.63;;;2.10;;
21837;SDS011;11081;45.946;6.140;2023-12-04T12:13:15;3.90;;;2.30;;
21837;SDS011;11081;45.946;6.140;2023-12-04T12:15:44;3.83;;;2.40;;
21837;SDS011;11081;45.946;6.140;2023-12-04T12:18:14;5.00;;;2.70;;
21837;SDS011;11081;45.946;6.140;2023-12-04T12:20:42;5.80;;;2.80;;
21837;SDS011;11081;45.946;6.140;2023-12-04T12:23:10;6.67;;;3.13;;
21837;SDS011;11081;45.946;6.140;2023-12-04T12:25:38;4.67;;;2.80;;
21837;SDS011;11081;45.946;6.140;2023-12-04T12:28:07;7.13;;;3.43;;
21837;SDS011;11081;45.946;6.140;2023-12-04T12:30:34;5.80;;;3.77;;
21837;SDS011;11081;45.946;6.140;2023-12-04T12:33:04;7.90;;;4.47;;
21837;SDS011;11081;45.946;6.140;2023-12-04T12:35:32;9.23;;;3.03;;
21837;SDS011;11081;45.946;6.140;2023-12-04T12:38:00;5.90;;;3.10;;
21837;SDS011;11081;45.946;6.140;2023-12-04T12:40:28;8.80;;;4.00;;
21837;SDS011;11081;45.946;6.140;2023-12-04T12:43:03;4.40;;;2.63;;
21837;SDS011;11081;45.946;6.140;2023-12-04T12:45:40;7.33;;;3.30;;
21837;SDS011;11081;45.946;6.140;2023-12-04T12:48:13;5.80;;;3.20;;
21837;SDS011;11081;45.946;6.140;2023-12-04T12:50:43;9.40;;;4.17;;
21837;SDS011;11081;45.946;6.140;2023-12-04T12:53:11;8.97;;;4.33;;
21837;SDS011;11081;45.946;6.140;2023-12-04T12:55:40;10.00;;;5.50;;
21837;SDS011;11081;45.946;6.140;2023-12-04T12:58:08;10.67;;;5.30;;
21837;SDS011;11081;45.946;6.140;2023-12-04T13:00:36;14.13;;;5.83;;
21837;SDS011;11081;45.946;6.140;2023-12-04T13:03:14;13.03;;;6.40;;
21837;SDS011;11081;45.946;6.140;2023-12-04T13:05:43;14.07;;;7.03;;
21837;SDS011;11081;45.946;6.140;2023-12-04T13:08:11;16.83;;;8.47;;
21837;SDS011;11081;45.946;6.140;2023-12-04T13:10:40;13.93;;;7.67;;
21837;SDS011;11081;45.946;6.140;2023-12-04T13:13:09;14.07;;;8.03;;
21837;SDS011;11081;45.946;6.140;2023-12-04T13:15:37;14.03;;;8.10;;
21837;SDS011;11081;45.946;6.140;2023-12-04T13:18:08;16.43;;;8.60;;
21837;SDS011;11081;45.946;6.140;2023-12-04T13:20:37;13.70;;;8.30;;
21837;SDS011;11081;45.946;6.140;2023-12-04T13:23:05;16.13;;;7.97;;
21837;SDS011;11081;45.946;6.140;2023-12-04T13:25:33;10.27;;;7.03;;
21837;SDS011;11081;45.946;6.140;2023-12-04T13:28:01;10.53;;;6.30;;
21837;SDS011;11081;45.946;6.140;2023-12-04T13:30:29;13.23;;;6.60;;
21837;SDS011;11081;45.946;6.140;2023-12-04T13:32:57;9.30;;;6.20;;
21837;SDS011;11081;45.946;6.140;2023-12-04T13:35:25;9.30;;;5.87;;
21837;SDS011;11081;45.946;6.140;2023-12-04T13:37:55;11.83;;;5.63;;
21837;SDS011;11081;45.946;6.140;2023-12-04T13:40:25;9.50;;;5.90;;
21837;SDS011;11081;45.946;6.140;2023-12-04T13:42:55;15.40;;;5.73;;
21837;SDS011;11081;45.946;6.140;2023-12-04T13:45:40;11.37;;;5.57;;
21837;SDS011;11081;45.946;6.140;2023-12-04T13:48:08;10.93;;;5.40;;
21837;SDS011;11081;45.946;6.140;2023-12-04T13:50:38;10.10;;;6.17;;
21837;SDS011;11081;45.946;6.140;2023-12-04T13:53:07;14.37;;;6.50;;
21837;SDS011;11081;45.946;6.140;2023-12-04T13:55:35;13.90;;;6.10;;
21837;SDS011;11081;45.946;6.140;2023-12-04T13:58:14;9.00;;;5.33;;
21837;SDS011;11081;45.946;6.140;2023-12-04T14:01:04;6.17;;;4.60;;
21837;SDS011;11081;45.946;6.140;2023-12-04T14:03:40;9.97;;;5.60;;
21837;SDS011;11081;45.946;6.140;2023-12-04T14:06:09;8.20;;;5.23;;
21837;SDS011;11081;45.946;6.140;2023-12-04T14:08:39;7.93;;;4.37;;
21837;SDS011;11081;45.946;6.140;2023-12-04T14:11:07;7.03;;;3.20;;
21837;SDS011;11081;45.946;6.140;2023-12-04T14:13:36;4.60;;;2.00;;
21837;SDS011;11081;45.946;6.140;2023-12-04T14:16:06;1.57;;;1.20;;
21837;SDS011;11081;45.946;6.140;2023-12-04T14:18:34;4.00;;;1.47;;
21837;SDS011;11081;45.946;6.140;2023-12-04T14:21:02;2.60;;;1.43;;
21837;SDS011;11081;45.946;6.140;2023-12-04T14:23:31;2.50;;;1.20;;
21837;SDS011;11081;45.946;6.140;2023-12-04T14:26:00;2.97;;;1.57;;
21837;SDS011;11081;45.946;6.140;2023-12-04T14:28:28;2.17;;;1.13;;
21837;SDS011;11081;45.946;6.140;2023-12-04T14:31:07;1.53;;;1.03;;
21837;SDS011;11081;45.946;6.140;2023-12-04T14:33:36;1.70;;;1.23;;
21837;SDS011;11081;45.946;6.140;2023-12-04T14:36:09;2.70;;;1.20;;
21837;SDS011;11081;45.946;6.140;2023-12-04T14:38:38;3.90;;;1.47;;
21837;SDS011;11081;45.946;6.140;2023-12-04T14:41:08;1.93;;;1.30;;
21837;SDS011;11081;45.946;6.140;2023-12-04T14:43:36;2.60;;;1.53;;
21837;SDS011;11081;45.946;6.140;2023-12-04T14:46:05;2.40;;;1.30;;
21837;SDS011;11081;45.946;6.140;2023-12-04T14:48:36;3.27;;;1.50;;
21837;SDS011;11081;45.946;6.140;2023-12-04T14:51:06;1.70;;;1.30;;
21837;SDS011;11081;45.946;6.140;2023-12-04T14:53:36;2.07;;;1.30;;
21837;SDS011;11081;45.946;6.140;2023-12-04T14:56:14;1.70;;;1.10;;
21837;SDS011;11081;45.946;6.140;2023-12-04T14:58:50;1.90;;;1.37;;